Time;durP1;ratioP1;P1;durP2;ratioP2;P2;SDS_P1;SDS_P2;PMS_P1;PMS_P2;Temp;Humidity;BMP_temperature;BMP_pressure;BME280_temperature;BME280_humidity;BME280_pressure;Samples;Min_cycle;Max_cycle;Signal;HPM_P1;HPM_P2
2022/02/03 00:00:32;;;;;;;77.67;32.93;;;;;;;-1.04;88.67;97132.27;1701784;83;21071;-74
2022/02/03 00:02:34;;;;;;;69.40;29.10;;;;;;;-1.00;87.99;97136.61;1683678;83;21029;-74
2022/02/03 00:07:32;;;;;;;82.42;32.93;;;;;;;-0.90;87.84;97142.69;1716994;82;21044;-74
2022/02/03 00:25:51;;;;;;;60.50;29.32;;;;;;;-0.58;87.05;97175.73;1756105;81;21024;-80
2022/02/03 00:28:26;;;;;;;64.72;28.92;;;;;;;-0.56;87.21;97177.88;1756954;82;21492;-73
2022/02/03 00:38:27;;;;;;;67.22;31.12;;;;;;;-0.64;86.95;97177.88;1715490;83;21115;-74
2022/02/03 00:49:14;;;;;;;63.65;30.45;;;;;;;-0.83;86.98;97184.33;1718745;83;20976;-73
2022/02/03 00:51:48;;;;;;;65.22;29.80;;;;;;;-0.82;87.34;97189.97;1721628;83;21020;-73
2022/02/03 00:54:11;;;;;;;69.12;32.40;;;;;;;-0.84;87.08;97189.52;1723185;82;21076;-73
2022/02/03 00:56:42;;;;;;;71.00;33.08;;;;;;;-0.82;87.79;97180.01;1723884;83;21048;-73
2022/02/03 00:59:15;;;;;;;68.60;32.98;;;;;;;-0.77;87.26;97186.52;1724005;83;21020;-73
2022/02/03 01:01:49;;;;;;;71.12;31.52;;;;;;;-0.77;87.03;97191.30;1694123;82;21032;-73
2022/02/03 01:04:17;;;;;;;72.20;32.00;;;;;;;-0.73;86.92;97191.75;1693716;85;21071;-73
2022/02/03 01:06:52;;;;;;;72.42;33.35;;;;;;;-0.74;86.96;97195.22;1693766;85;21036;-73
2022/02/03 01:09:25;;;;;;;68.87;32.03;;;;;;;-0.72;88.02;97195.20;1693726;84;21067;-75
2022/02/03 01:12:07;;;;;;;70.40;30.65;;;;;;;-0.73;88.40;97191.75;1696012;83;21005;-74
2022/02/03 01:14:29;;;;;;;72.55;30.65;;;;;;;-0.77;89.39;97198.22;1693486;84;21471;-74
2022/02/03 01:19:37;;;;;;;75.62;33.23;;;;;;;-0.79;87.75;97193.01;1695284;84;21057;-74
2022/02/03 01:44:16;;;;;;;62.93;29.67;;;;;;;-0.95;88.21;97207.72;1701094;83;20996;-74
2022/02/03 01:46:40;;;;;;;60.00;28.50;;;;;;;-0.91;88.15;97219.00;1733961;82;21038;-74
2022/02/03 01:49:16;;;;;;;64.55;29.55;;;;;;;-0.87;88.41;97224.66;1736926;82;20991;-74
2022/02/03 01:51:53;;;;;;;62.80;26.37;;;;;;;-0.89;89.25;97221.16;1738111;82;21026;-74
2022/02/03 01:54:18;;;;;;;59.25;27.00;;;;;;;-0.90;88.64;97225.52;1739425;81;20990;-74
2022/02/03 01:57:05;;;;;;;60.88;27.75;;;;;;;-0.88;88.30;97225.53;1708469;83;21024;-74
2022/02/03 01:59:36;;;;;;;64.77;27.67;;;;;;;-0.86;88.32;97224.67;1718595;83;21063;-75
2022/02/03 02:02:06;;;;;;;43.87;19.85;;;;;;;-0.80;88.26;97232.91;1724110;83;21032;-74
2022/02/03 02:05:02;;;;;;;52.13;24.72;;;;;;;-0.74;89.22;97229.05;1710993;83;21036;-74
2022/02/03 02:08:13;;;;;;;46.63;21.00;;;;;;;-0.71;88.46;97242.05;1675718;85;21021;-74
2022/02/03 02:11:17;;;;;;;20.80;10.85;;;;;;;-0.61;88.29;97240.77;1704001;83;20992;-73
2022/02/03 02:14:15;;;;;;;17.52;8.35;;;;;;;-0.56;88.65;97249.46;1725396;83;21048;-74
2022/02/03 02:39:22;;;;;;;13.18;7.25;;;;;;;0.20;88.43;97299.52;1686624;85;21410;-74
2022/02/03 02:42:31;;;;;;;15.30;7.83;;;;;;;0.24;88.26;97300.81;1692649;84;21084;-74
2022/02/03 02:45:02;;;;;;;13.83;8.28;;;;;;;0.30;88.17;97307.78;1696037;83;21011;-74
2022/02/03 02:47:34;;;;;;;14.47;7.83;;;;;;;0.33;87.83;97310.36;1726120;83;21032;-74
2022/02/03 02:50:11;;;;;;;16.05;8.65;;;;;;;0.37;87.83;97319.05;1726823;83;21020;-74
2022/02/03 02:52:47;;;;;;;13.30;7.37;;;;;;;0.38;87.54;97313.84;1722447;83;21024;-73
2022/02/03 02:55:35;;;;;;;13.65;7.95;;;;;;;0.39;87.57;97319.52;1726454;83;21016;-74
2022/02/03 03:35:29;;;;;;;11.12;6.97;;;;;;;0.34;84.41;97380.32;1693944;85;21040;-74
2022/02/03 03:37:05;;;;;;;13.85;7.00;;;;;;;0.31;84.20;97383.80;1679092;85;21044;-74
2022/02/03 03:39:39;;;;;;;12.85;6.85;;;;;;;0.31;84.00;97386.41;1700756;83;21473;-73
2022/02/03 03:42:02;;;;;;;12.00;7.35;;;;;;;0.31;84.09;97394.22;1722546;83;21462;-74
2022/02/03 03:44:31;;;;;;;12.20;6.95;;;;;;;0.33;84.13;97398.98;1723206;83;20981;-74
2022/02/03 03:47:03;;;;;;;12.75;7.08;;;;;;;0.34;84.16;97407.69;1724018;83;21005;-74
2022/02/03 03:49:43;;;;;;;13.95;7.65;;;;;;;0.34;84.17;97405.94;1691816;83;21044;-74
2022/02/03 03:52:22;;;;;;;14.33;7.67;;;;;;;0.37;84.16;97406.38;1686005;85;21414;-74
2022/02/03 03:55:05;;;;;;;14.07;7.78;;;;;;;0.38;84.35;97412.90;1686812;85;21001;-75
2022/02/03 04:55:53;;;;;;;15.45;7.67;;;;;;;0.41;83.54;97485.03;1697669;83;21478;-74
2022/02/03 05:01:58;;;;;;;12.95;7.00;;;;;;;0.41;83.23;97492.00;1693171;84;21080;-73
2022/02/03 05:10:24;;;;;;;13.98;7.67;;;;;;;0.36;83.12;97507.19;1726913;83;21044;-75
2022/02/03 05:13:14;;;;;;;13.13;7.72;;;;;;;0.36;83.07;97518.92;1695458;83;21039;-74
2022/02/03 05:34:57;;;;;;;15.40;8.60;;;;;;;0.34;83.23;97563.64;1727038;83;21028;-74
2022/02/03 05:43:15;;;;;;;15.10;8.53;;;;;;;0.34;82.69;97575.38;1697407;84;21049;-73
2022/02/03 05:45:41;;;;;;;14.78;8.03;;;;;;;0.31;82.76;97580.59;1715499;83;21024;-73
2022/02/03 05:51:17;;;;;;;13.50;7.33;;;;;;;0.31;82.43;97586.23;1724081;83;21016;-75
2022/02/03 06:02:34;;;;;;;14.63;8.58;;;;;;;0.26;81.81;97611.83;1687066;85;21084;-74
2022/02/03 06:11:52;;;;;;;19.82;8.95;;;;;;;0.28;82.14;97626.63;1724020;83;21481;-74
2022/02/03 06:14:43;;;;;;;14.63;8.33;;;;;;;0.24;82.02;97632.23;1723884;83;21012;-74
2022/02/03 06:17:28;;;;;;;15.03;8.45;;;;;;;0.26;82.00;97644.86;1717252;83;20937;-74
2022/02/03 06:22:27;;;;;;;14.78;8.28;;;;;;;0.23;81.86;97652.66;1724241;83;21480;-74
2022/02/03 06:27:23;;;;;;;50.17;25.08;;;;;;;0.24;81.63;97663.52;1686963;85;21052;-73
2022/02/03 06:27:28;;;;;;;18.35;10.43;;;;;;;0.23;81.53;97674.39;1685966;84;20981;-74
2022/02/03 06:29:58;;;;;;;14.58;8.53;;;;;;;0.27;81.80;97677.88;1711280;83;21008;-74
2022/02/03 06:32:26;;;;;;;14.65;8.50;;;;;;;0.28;81.64;97680.07;1710805;83;20973;-74
2022/02/03 06:34:53;;;;;;;15.78;8.63;;;;;;;0.27;81.59;97690.91;1710857;83;21012;-74
2022/02/03 06:37:20;;;;;;;13.35;7.72;;;;;;;0.28;81.51;97695.26;1693635;85;21016;-74
2022/02/03 06:39:46;;;;;;;13.80;8.45;;;;;;;0.29;81.14;97696.14;1693850;83;21028;-74
2022/02/03 06:42:13;;;;;;;16.60;9.10;;;;;;;0.27;81.23;97710.46;1702148;83;21409;-74
2022/02/03 06:44:45;;;;;;;13.08;7.47;;;;;;;0.26;80.62;97717.84;1709866;83;20933;-74
2022/02/03 06:47:17;;;;;;;12.35;7.70;;;;;;;0.27;80.94;97709.16;1718007;83;20989;-74
2022/02/03 06:52:14;;;;;;;14.58;8.95;;;;;;;0.26;80.88;97729.58;1726963;83;21000;-74
2022/02/03 06:55:01;;;;;;;11.70;7.03;;;;;;;0.28;80.95;97730.89;1699421;83;20996;-75
2022/02/03 06:57:11;;;;;;;14.43;7.75;;;;;;;0.28;80.53;97728.30;1713886;83;21395;-74
2022/02/03 06:59:45;;;;;;;13.90;7.37;;;;;;;0.28;80.75;97737.41;1725091;83;20973;-75
2022/02/03 07:02:05;;;;;;;12.23;7.80;;;;;;;0.28;80.41;97742.63;1718863;83;21418;-75
2022/02/03 07:04:39;;;;;;;16.05;7.87;;;;;;;0.29;80.44;97740.00;1724139;83;21017;-74
2022/02/03 07:07:01;;;;;;;13.60;8.20;;;;;;;0.32;80.33;97744.37;1711808;83;21418;-72
2022/02/03 07:09:29;;;;;;;11.18;7.22;;;;;;;0.35;80.44;97757.02;1702690;82;21032;-75
2022/02/03 07:11:56;;;;;;;17.37;8.10;;;;;;;0.31;79.35;97748.73;1699502;83;21410;-73
2022/02/03 07:14:24;;;;;;;12.50;7.72;;;;;;;0.37;79.88;97757.00;1695291;83;21032;-73
2022/02/03 07:16:52;;;;;;;11.65;7.00;;;;;;;0.38;79.94;97746.59;1693806;85;21012;-73
2022/02/03 07:19:19;;;;;;;12.07;7.33;;;;;;;0.40;80.08;97746.61;1693747;85;20996;-73
2022/02/03 07:21:47;;;;;;;12.60;7.37;;;;;;;0.44;79.85;97744.47;1698804;83;21009;-73
2022/02/03 07:24:14;;;;;;;13.72;7.03;;;;;;;0.47;79.71;97748.83;1693816;85;21028;-73
2022/02/03 07:26:41;;;;;;;10.53;6.58;;;;;;;0.46;77.76;97754.92;1720809;83;20988;-73
2022/02/03 07:29:07;;;;;;;10.00;6.40;;;;;;;0.55;79.01;97751.07;1721033;83;21063;-74
2022/02/03 07:31:33;;;;;;;11.05;7.08;;;;;;;0.60;78.58;97749.36;1718150;83;20953;-73
2022/02/03 07:34:08;;;;;;;11.38;7.00;;;;;;;0.64;77.88;97752.44;1717339;83;21023;-73
2022/02/03 07:36:28;;;;;;;11.28;6.25;;;;;;;0.71;77.73;97761.14;1695942;83;20985;-74
2022/02/03 07:38:57;;;;;;;12.82;7.25;;;;;;;0.73;77.08;97762.05;1687032;85;21056;-73
2022/02/03 07:41:23;;;;;;;9.13;5.78;;;;;;;0.73;77.29;97773.78;1698475;83;20969;-74
2022/02/03 07:43:49;;;;;;;9.63;5.85;;;;;;;0.74;76.49;97774.22;1694878;85;21009;-73
2022/02/03 07:46:17;;;;;;;10.85;6.50;;;;;;;0.71;75.11;97777.25;1695058;83;21449;-73
2022/02/03 07:48:44;;;;;;;11.80;6.42;;;;;;;0.75;76.06;97783.78;1694554;83;21056;-73
2022/02/03 07:51:10;;;;;;;12.55;6.70;;;;;;;0.74;75.71;97787.27;1693760;83;21072;-74
2022/02/03 07:53:37;;;;;;;13.93;5.90;;;;;;;0.78;76.41;97787.73;1696568;83;20981;-74
2022/02/03 07:56:04;;;;;;;10.85;5.55;;;;;;;0.81;75.24;97788.17;1719805;83;21036;-74
2022/02/03 07:58:30;;;;;;;11.83;6.65;;;;;;;0.78;74.94;97789.03;1723752;83;20976;-75
2022/02/03 08:00:57;;;;;;;10.85;6.28;;;;;;;0.84;75.67;97788.20;1705164;83;21044;-74
2022/02/03 08:03:24;;;;;;;8.80;5.55;;;;;;;0.86;75.67;97796.91;1704598;83;21044;-74
2022/02/03 08:05:57;;;;;;;11.20;6.40;;;;;;;0.91;74.88;97792.58;1702829;83;20982;-74
2022/02/03 08:08:24;;;;;;;10.72;6.45;;;;;;;0.96;75.24;97796.54;1697681;84;21009;-74
2022/02/03 08:10:54;;;;;;;8.58;5.22;;;;;;;1.01;75.16;97791.33;1697979;84;21006;-74
2022/02/03 08:13:27;;;;;;;9.55;5.72;;;;;;;1.02;73.91;97788.73;1697761;83;21394;-74
2022/02/03 08:15:50;;;;;;;14.00;5.97;;;;;;;1.08;74.48;97786.57;1720536;83;21035;-74
2022/02/03 08:18:19;;;;;;;10.28;5.30;;;;;;;1.17;74.05;97797.52;1727306;83;21044;-74
2022/02/03 08:20:53;;;;;;;9.98;5.90;;;;;;;1.25;74.57;97798.40;1726706;83;21047;-72
2022/02/03 08:23:52;;;;;;;8.50;4.67;;;;;;;1.39;74.26;97798.90;1726475;83;21016;-73
2022/02/03 08:25:46;;;;;;;9.93;5.80;;;;;;;1.54;74.60;97811.16;1722128;83;21020;-71
2022/02/03 08:28:42;;;;;;;9.38;5.47;;;;;;;1.62;72.28;97802.04;1716621;83;20972;-71
2022/02/03 08:31:01;;;;;;;8.68;5.08;;;;;;;1.70;71.90;97800.30;1715608;83;21403;-74
2022/02/03 08:33:27;;;;;;;9.63;5.47;;;;;;;1.76;71.49;97802.06;1721334;83;20990;-74
2022/02/03 08:35:55;;;;;;;8.78;4.95;;;;;;;1.79;72.44;97795.55;1716381;83;21033;-72
2022/02/03 08:38:33;;;;;;;10.58;5.90;;;;;;;1.87;72.32;97806.02;1717825;83;20991;-73
2022/02/03 08:43:23;;;;;;;10.38;5.78;;;;;;;1.87;70.87;97804.72;1710373;83;21380;-72
2022/02/03 08:45:50;;;;;;;13.35;7.80;;;;;;;1.84;71.45;97804.27;1712312;83;21020;-73
2022/02/03 08:48:18;;;;;;;8.65;5.55;;;;;;;1.86;71.18;97802.98;1713806;83;21026;-73
2022/02/03 08:50:44;;;;;;;9.43;5.95;;;;;;;1.80;70.58;97808.63;1710439;83;20942;-73
2022/02/03 08:53:18;;;;;;;8.33;5.42;;;;;;;1.82;70.20;97807.30;1712557;83;21048;-73
2022/02/03 08:55:54;;;;;;;8.83;5.53;;;;;;;1.87;71.15;97816.48;1716707;83;20996;-73
2022/02/03 09:39:03;;;;;;;7.55;4.65;;;;;;;1.43;67.80;97868.14;1680219;85;20929;-72
2022/02/03 09:41:48;;;;;;;6.70;4.30;;;;;;;1.43;67.52;97864.22;1688130;84;21407;-72
2022/02/03 09:52:35;;;;;;;5.90;3.50;;;;;;;1.48;65.54;97877.29;1691838;84;21462;-72
2022/02/03 09:57:51;;;;;;;;;;;;;;;1.56;64.65;97887.77;1689289;84;21033;-73
2022/02/03 10:00:46;;;;;;;11.20;5.00;;;;;;;1.67;63.51;97885.22;1686055;84;20134;-73
2022/02/03 10:03:20;;;;;;;5.53;3.75;;;;;;;1.83;63.47;97895.30;1689196;84;21045;-73
2022/02/03 10:06:00;;;;;;;6.00;3.75;;;;;;;1.82;62.67;97884.39;1666941;84;20985;-72
2022/02/03 10:08:26;;;;;;;4.97;3.85;;;;;;;1.84;63.36;97895.74;1679217;84;21010;-72
2022/02/03 10:11:12;;;;;;;5.70;3.67;;;;;;;1.86;61.86;97901.83;1674028;85;21017;-72
2022/02/03 10:13:47;;;;;;;7.42;3.17;;;;;;;1.84;62.63;97891.37;1674479;85;21041;-73
2022/02/03 10:16:20;;;;;;;7.35;3.65;;;;;;;1.90;62.98;97893.56;1659143;86;21366;-72
2022/02/03 10:18:49;;;;;;;6.28;3.70;;;;;;;2.02;63.13;97891.42;1655993;86;21010;-72
2022/02/03 10:21:20;;;;;;;5.15;3.70;;;;;;;2.09;62.29;97901.05;1660689;86;20982;-73
2022/02/03 10:24:01;;;;;;;6.22;3.40;;;;;;;2.15;61.28;97901.06;1713797;83;21482;-73
2022/02/03 10:26:44;;;;;;;6.22;3.40;;;;;;;2.07;60.54;97900.16;1713857;83;21476;-73
2022/02/03 10:29:19;;;;;;;6.20;3.90;;;;;;;2.03;61.21;97894.50;1719724;83;21118;-73
2022/02/03 10:31:48;;;;;;;7.10;3.83;;;;;;;2.06;61.63;97885.34;1708736;83;20997;-73
2022/02/03 10:34:24;;;;;;;8.45;3.62;;;;;;;2.11;60.89;97884.50;1708220;83;21035;-73
2022/02/03 10:37:26;;;;;;;5.15;2.52;;;;;;;2.07;59.55;97884.47;1710953;83;20993;-72
2022/02/03 10:42:38;;;;;;;6.08;3.55;;;;;;;2.04;58.58;97888.40;1714533;83;21013;-73
2022/02/03 10:48:25;;;;;;;5.65;3.17;;;;;;;2.21;58.31;97897.59;1710992;83;21398;-72
2022/02/03 10:56:16;;;;;;;5.12;3.20;;;;;;;2.62;59.04;97903.77;1714438;83;21362;-72
2022/02/03 10:58:50;;;;;;;8.80;3.45;;;;;;;3.00;59.18;97905.49;1714906;82;21020;-73
2022/02/03 11:04:05;;;;;;;3.47;2.50;;;;;;;3.45;51.62;97907.20;1719720;83;21453;-72
2022/02/03 11:11:34;;;;;;;4.40;2.45;;;;;;;5.93;52.66;97889.61;1693750;84;21024;-73
2022/02/03 11:13:53;;;;;;;3.40;1.80;;;;;;;6.58;49.71;97890.09;1693242;84;21020;-73
2022/02/03 11:16:24;;;;;;;2.92;1.72;;;;;;;6.05;43.80;97891.25;1688483;84;20973;-73
2022/02/03 11:18:52;;;;;;;3.83;2.42;;;;;;;5.21;43.51;97882.96;1690087;84;21461;-73
2022/02/03 11:21:18;;;;;;;3.83;2.25;;;;;;;4.92;47.26;97884.09;1690914;84;21355;-72
2022/02/03 11:23:51;;;;;;;5.67;2.58;;;;;;;4.97;48.83;97899.38;1692409;84;20993;-72
2022/02/03 11:26:29;;;;;;;4.70;2.58;;;;;;;5.09;47.38;97897.97;1695141;83;21437;-72
2022/02/03 12:01:45;;;;;;;3.20;2.17;;;;;;;6.96;44.97;97913.20;1678684;84;21052;-73
2022/02/03 12:04:39;;;;;;;4.05;2.70;;;;;;;7.85;44.52;97885.25;1700096;84;21504;-74
2022/02/03 12:12:54;;;;;;;3.22;2.40;;;;;;;6.85;44.22;97875.20;1713347;83;21056;-73
2022/02/03 12:15:40;;;;;;;4.42;2.95;;;;;;;6.01;43.07;97880.30;1711201;83;20949;-73
2022/02/03 12:20:56;;;;;;;3.15;2.08;;;;;;;5.56;46.88;97881.72;1705864;84;20952;-72
2022/02/03 12:28:59;;;;;;;3.50;2.35;;;;;;;7.15;44.89;97887.86;1704599;84;21528;-80
2022/02/03 12:39:43;;;;;;;2.67;2.00;;;;;;;5.79;44.99;97889.80;1711760;83;20992;-81
2022/02/03 12:42:20;;;;;;;7.42;2.35;;;;;;;5.54;44.05;97894.02;1709432;83;20980;-81
2022/02/03 12:44:39;;;;;;;4.37;1.98;;;;;;;5.31;44.60;97903.00;1704355;83;21040;-81
2022/02/03 12:47:05;;;;;;;4.67;2.02;;;;;;;5.17;45.63;97911.03;1712196;83;20983;-81
2022/02/03 12:49:39;;;;;;;3.58;2.00;;;;;;;5.08;46.11;97910.68;1681119;85;21028;-81
2022/02/03 12:52:27;;;;;;;5.27;2.03;;;;;;;4.95;45.06;97909.03;1707433;83;21015;-80
2022/02/03 12:54:56;;;;;;;2.65;1.77;;;;;;;5.08;43.01;97911.11;1701373;83;21031;-79
2022/02/03 12:57:35;;;;;;;3.55;1.62;;;;;;;5.00;44.70;97914.69;1714868;83;21045;-80
2022/02/03 13:00:16;;;;;;;3.05;1.65;;;;;;;5.02;45.21;97917.27;1710525;83;21431;-79
2022/02/03 13:02:57;;;;;;;3.27;1.80;;;;;;;4.88;43.15;97926.16;1708458;83;21012;-79
2022/02/03 13:05:28;;;;;;;5.08;2.20;;;;;;;4.69;45.48;97925.41;1710545;83;21000;-80
2022/02/03 13:07:57;;;;;;;5.65;2.08;;;;;;;4.48;45.61;97933.86;1708328;82;21450;-79
2022/02/03 13:10:28;;;;;;;5.55;2.98;;;;;;;4.44;45.29;97927.34;1692774;83;20977;-79
2022/02/03 13:13:15;;;;;;;3.85;2.60;;;;;;;4.28;44.88;97948.39;1711349;83;21009;-79
2022/02/03 13:15:42;;;;;;;4.17;2.17;;;;;;;4.15;46.17;97942.80;1716669;82;21433;-79
2022/02/03 13:18:20;;;;;;;8.10;3.40;;;;;;;4.06;46.52;97959.42;1715956;82;21071;-79
2022/02/03 13:21:02;;;;;;;5.20;2.77;;;;;;;4.00;46.67;97955.09;1716840;82;21024;-79
2022/02/03 13:23:25;;;;;;;6.55;3.27;;;;;;;4.00;47.19;97956.41;1711891;82;20968;-79
2022/02/03 13:31:04;;;;;;;4.45;2.62;;;;;;;3.82;46.82;97967.38;1723997;83;21063;-79
2022/02/03 13:33:35;;;;;;;4.03;2.40;;;;;;;3.93;47.96;97973.02;1710662;83;20984;-80
2022/02/03 13:36:06;;;;;;;4.62;2.70;;;;;;;3.61;46.98;97973.53;1716782;82;21429;-80
2022/02/03 13:38:43;;;;;;;;;;;;;;;3.54;48.41;97977.91;1730392;82;21458;-80
2022/02/03 13:41:16;;;;;;;5.33;3.00;;;;;;;3.29;48.71;97975.31;1723079;82;20334;-80
2022/02/03 13:43:44;;;;;;;6.17;2.95;;;;;;;3.17;49.77;97980.58;1727822;82;20980;-80
2022/02/03 13:46:19;;;;;;;4.40;2.40;;;;;;;3.06;50.24;97985.80;1700221;83;20961;-80
2022/02/03 13:48:49;;;;;;;;;;;;;;;2.98;50.37;97977.95;1709277;83;20985;-82
2022/02/03 13:51:16;;;;;;;3.67;2.12;;;;;;;2.81;50.35;97979.66;1704600;83;20406;-81
2022/02/03 13:53:56;;;;;;;20.12;9.50;;;;;;;2.67;50.05;97979.22;1713785;82;21019;-81
2022/02/03 14:21:27;;;;;;;4.65;2.25;;;;;;;2.15;49.92;98004.34;1700178;82;20989;-80
2022/02/03 14:29:25;;;;;;;3.65;1.95;;;;;;;2.16;50.59;97997.37;1720126;83;20988;-81
2022/02/03 14:31:56;;;;;;;4.25;2.30;;;;;;;2.10;51.02;98008.67;1715890;83;20978;-80
2022/02/03 14:34:23;;;;;;;3.30;1.92;;;;;;;1.98;50.39;98007.75;1707743;82;20990;-80
2022/02/03 14:36:48;;;;;;;4.45;2.62;;;;;;;1.93;50.93;97999.02;1715569;83;20973;-80
2022/02/03 14:39:20;;;;;;;3.65;2.12;;;;;;;1.91;51.25;98003.34;1709782;82;20988;-83
2022/02/03 14:41:46;;;;;;;4.83;2.98;;;;;;;1.93;51.47;98004.25;1712724;83;20992;-79
2022/02/03 14:44:15;;;;;;;4.28;2.45;;;;;;;1.97;51.78;98006.02;1712804;82;20959;-80
2022/02/03 14:46:46;;;;;;;6.12;2.70;;;;;;;1.98;52.18;98011.67;1711207;83;20965;-79
2022/02/03 14:49:12;;;;;;;5.05;2.60;;;;;;;1.95;52.35;98020.80;1704815;83;21433;-80
2022/02/03 14:51:49;;;;;;;4.75;2.35;;;;;;;1.95;52.39;98023.41;1713196;83;21023;-80
2022/02/03 14:59:18;;;;;;;;;;;;;;;1.84;52.73;98023.80;1722529;83;20973;-79
2022/02/03 15:01:45;;;;;;;7.72;3.52;;;;;;;1.77;53.40;98023.30;1712701;83;20371;-80
2022/02/03 15:04:24;;;;;;;6.12;3.17;;;;;;;1.72;53.83;98025.89;1718299;83;20964;-80
2022/02/03 15:06:51;;;;;;;5.17;3.20;;;;;;;1.66;54.43;98025.41;1707124;83;20952;-80
2022/02/03 15:11:57;;;;;;;6.72;3.80;;;;;;;1.57;54.93;98031.45;1679587;84;21027;-79
2022/02/03 15:14:10;;;;;;;6.42;3.85;;;;;;;1.49;55.16;98033.58;1671621;84;21042;-79
2022/02/03 15:16:36;;;;;;;8.83;3.50;;;;;;;1.41;54.98;98029.16;1658131;85;20949;-80
2022/02/03 15:19:03;;;;;;;16.85;7.72;;;;;;;1.26;54.99;98029.92;1676946;85;21019;-79
2022/02/03 15:21:29;;;;;;;6.75;3.33;;;;;;;1.19;54.63;98037.25;1685857;85;21033;-79
2022/02/03 15:23:56;;;;;;;7.05;3.17;;;;;;;1.07;54.07;98030.17;1678855;85;21422;-80
2022/02/03 15:26:22;;;;;;;4.50;2.75;;;;;;;0.99;54.76;98046.22;1713724;83;20984;-80
2022/02/03 15:28:49;;;;;;;6.45;2.80;;;;;;;0.94;55.04;98047.45;1707959;83;20958;-80
2022/02/03 15:31:15;;;;;;;5.10;3.02;;;;;;;0.84;55.07;98046.92;1686290;84;21003;-81
2022/02/03 15:33:53;;;;;;;6.58;3.33;;;;;;;0.70;55.49;98042.87;1725212;83;20961;-80
2022/02/03 15:36:14;;;;;;;9.10;3.67;;;;;;;0.63;55.58;98049.31;1710894;83;20984;-80
2022/02/03 15:38:47;;;;;;;8.63;3.77;;;;;;;0.53;56.10;98052.67;1717192;83;20993;-80
2022/02/03 15:41:10;;;;;;;8.10;3.30;;;;;;;0.44;56.34;98056.47;1676130;85;21015;-80
2022/02/03 15:43:40;;;;;;;9.08;3.47;;;;;;;0.36;56.88;98060.30;1702908;83;20985;-80
2022/02/03 15:46:05;;;;;;;14.15;4.20;;;;;;;0.28;56.85;98067.16;1681477;84;21019;-80
2022/02/03 15:48:53;;;;;;;10.85;3.60;;;;;;;0.17;57.68;98065.72;1675725;85;20993;-80
2022/02/03 16:01:50;;;;;;;9.63;3.90;;;;;;;-0.14;58.36;98090.91;1699600;83;21018;-80
2022/02/03 16:17:39;;;;;;;;;;;;;;;-0.53;59.38;98087.72;1728602;82;20965;-79
2022/02/03 16:20:17;;;;;;;10.63;4.90;;;;;;;-0.60;59.64;98093.66;1753333;82;20347;-79
2022/02/03 16:52:38;;;;;;;14.23;5.17;;;;;;;-1.38;63.15;98119.55;1725948;83;21444;-79
2022/02/03 16:55:02;;;;;;;12.00;4.40;;;;;;;-1.43;63.16;98119.88;1727620;82;21081;-79
2022/02/03 16:57:28;;;;;;;8.50;4.08;;;;;;;-1.43;63.22;98125.08;1721243;82;21079;-79
2022/02/03 17:00:02;;;;;;;15.58;6.95;;;;;;;-1.44;63.21;98128.53;1721449;83;20951;-79
2022/02/03 17:02:25;;;;;;;7.97;5.35;;;;;;;-1.46;63.34;98121.59;1722532;83;21097;-79
2022/02/03 17:04:53;;;;;;;9.90;5.28;;;;;;;-1.44;63.34;98131.13;1723199;83;21424;-79
2022/02/03 17:07:20;;;;;;;14.53;5.05;;;;;;;-1.44;63.32;98128.53;1723034;83;21417;-79
2022/02/03 17:09:46;;;;;;;17.10;5.17;;;;;;;-1.44;63.37;98127.23;1714948;82;20985;-79
2022/02/03 17:12:13;;;;;;;14.95;5.33;;;;;;;-1.47;63.36;98134.14;1704464;83;21039;-80
2022/02/03 17:14:39;;;;;;;10.88;5.03;;;;;;;-1.48;63.88;98138.00;1696485;85;21429;-79
2022/02/03 17:17:05;;;;;;;10.43;5.50;;;;;;;-1.51;63.83;98131.02;1704803;84;21041;-80
2022/02/03 17:19:32;;;;;;;23.15;10.50;;;;;;;-1.58;63.96;98128.26;1708738;83;20997;-79
2022/02/03 17:21:58;;;;;;;15.50;6.95;;;;;;;-1.63;64.07;98138.53;1708825;84;21489;-80
2022/02/03 17:24:25;;;;;;;16.10;7.08;;;;;;;-1.66;64.51;98137.19;1708825;83;21025;-80
2022/02/03 17:27:02;;;;;;;14.63;6.08;;;;;;;-1.73;64.66;98131.84;1701535;83;21004;-79
2022/02/03 17:32:14;;;;;;;12.73;6.55;;;;;;;-1.78;64.77;98132.60;1696453;85;21032;-79
2022/02/03 17:54:37;;;;;;;12.40;6.45;;;;;;;-2.12;65.75;98129.69;1704146;83;21445;-79
2022/02/03 18:07:54;;;;;;;39.50;18.27;;;;;;;-2.29;67.08;98121.50;1696553;85;21017;-79
2022/02/03 18:26:56;;;;;;;12.30;6.33;;;;;;;-2.41;67.29;98123.83;1637181;86;21097;-79
2022/02/03 18:31:41;;;;;;;13.65;7.12;;;;;;;-2.46;67.97;98115.05;1591114;85;21025;-79
2022/02/03 18:36:54;;;;;;;16.37;7.08;;;;;;;-2.53;67.66;98110.98;1656779;85;21021;-80
2022/02/03 18:50:24;;;;;;;17.65;7.00;;;;;;;-2.64;68.31;98118.93;1668589;84;20998;-79
2022/02/03 18:52:58;;;;;;;13.72;6.33;;;;;;;-2.66;68.49;98115.00;1667621;85;21032;-79
2022/02/03 18:55:20;;;;;;;14.98;7.45;;;;;;;-2.69;68.51;98114.05;1658931;84;21470;-80
2022/02/03 18:57:52;;;;;;;17.87;6.25;;;;;;;-2.68;68.82;98120.98;1653100;85;20954;-80
2022/02/03 19:16:24;;;;;;;7.33;4.20;;;;;;;-2.40;67.50;98126.43;1696641;83;21033;-80
2022/02/03 19:57:07;;;;;;;15.32;7.12;;;;;;;-2.67;68.37;98152.16;1727080;83;20992;-80
2022/02/03 20:00:27;;;;;;;12.00;6.70;;;;;;;-2.69;69.19;98152.97;1722813;83;21001;-79
2022/02/03 20:06:56;;;;;;;14.87;7.95;;;;;;;-2.71;68.35;98145.14;1693489;84;21422;-80
2022/02/03 20:09:44;;;;;;;12.40;7.87;;;;;;;-2.72;68.63;98146.39;1708579;83;21064;-80
2022/02/03 20:11:54;;;;;;;15.38;8.65;;;;;;;-2.75;69.05;98139.41;1703610;83;21025;-80
2022/02/03 20:14:23;;;;;;;15.03;7.15;;;;;;;-2.77;68.78;98136.31;1723832;83;21028;-80
2022/02/03 20:16:49;;;;;;;11.48;6.30;;;;;;;-2.84;68.73;98137.86;1724238;83;20988;-79
2022/02/03 20:19:16;;;;;;;21.42;9.60;;;;;;;-2.90;68.72;98137.30;1724123;83;21127;-80
2022/02/03 20:21:44;;;;;;;19.17;9.03;;;;;;;-2.92;69.36;98145.45;1706441;83;21433;-81
2022/02/03 20:24:11;;;;;;;21.10;9.65;;;;;;;-2.96;70.66;98145.79;1726692;83;21383;-80
2022/02/03 20:26:42;;;;;;;19.85;8.85;;;;;;;-3.02;70.72;98140.85;1700407;83;20988;-80
2022/02/03 20:29:08;;;;;;;22.77;9.78;;;;;;;-3.04;70.07;98140.80;1714893;83;21057;-81
2022/02/03 20:31:35;;;;;;;17.55;9.08;;;;;;;-3.08;70.10;98138.56;1708059;83;21007;-81
2022/02/03 20:34:02;;;;;;;20.45;8.95;;;;;;;-3.05;69.89;98139.95;1701815;83;21028;-81
2022/02/03 20:36:29;;;;;;;22.77;9.90;;;;;;;-3.03;71.07;98140.40;1696634;83;21430;-81
2022/02/03 20:38:55;;;;;;;17.10;9.05;;;;;;;-3.06;70.59;98134.27;1676378;83;21072;-81
2022/02/03 20:41:23;;;;;;;17.90;9.70;;;;;;;-3.03;70.36;98136.11;1703187;83;21024;-81
2022/02/03 20:43:51;;;;;;;19.85;9.33;;;;;;;-3.06;70.09;98138.16;1693681;85;21021;-81
2022/02/03 20:46:19;;;;;;;19.52;9.38;;;;;;;-3.07;70.06;98129.08;1693796;85;21010;-81
2022/02/03 20:48:46;;;;;;;15.23;8.63;;;;;;;-3.07;70.34;98125.19;1693835;85;21426;-81
2022/02/03 20:51:20;;;;;;;20.75;10.10;;;;;;;-3.10;70.14;98119.50;1705896;83;21413;-81
2022/02/03 20:53:49;;;;;;;21.77;11.38;;;;;;;-3.10;70.49;98122.50;1727071;83;21437;-81
2022/02/03 20:56:18;;;;;;;25.05;11.83;;;;;;;-3.14;70.64;98120.66;1726382;83;21000;-81
2022/02/03 20:58:46;;;;;;;21.77;10.50;;;;;;;-3.15;70.31;98118.50;1715892;83;21467;-79
2022/02/03 21:01:20;;;;;;;27.93;11.10;;;;;;;-3.18;70.08;98113.22;1693711;85;21765;-80
2022/02/03 21:03:45;;;;;;;22.07;9.60;;;;;;;-3.19;70.14;98107.14;1692946;84;21046;-81
2022/02/03 21:06:12;;;;;;;21.90;11.55;;;;;;;-3.23;70.15;98107.92;1693825;85;21039;-81
2022/02/03 21:08:42;;;;;;;20.97;10.68;;;;;;;-3.28;70.13;98110.78;1700491;83;21044;-81
2022/02/03 21:11:09;;;;;;;22.55;11.22;;;;;;;-3.34;70.26;98115.39;1684035;85;21574;-81
2022/02/03 21:13:36;;;;;;;21.02;10.20;;;;;;;-3.31;70.88;98118.49;1678996;85;21001;-81
2022/02/03 21:16:06;;;;;;;20.27;9.85;;;;;;;-3.34;71.01;98114.50;1679020;85;20990;-81
2022/02/03 21:18:38;;;;;;;20.35;10.08;;;;;;;-3.38;71.31;98113.55;1700338;84;21004;-80
2022/02/03 21:21:05;;;;;;;19.85;11.15;;;;;;;-3.39;71.17;98110.91;1708887;84;21053;-81
2022/02/03 21:23:33;;;;;;;26.02;13.20;;;;;;;-3.45;71.11;98109.91;1708955;84;21002;-81
2022/02/03 21:26:02;;;;;;;22.15;11.60;;;;;;;-3.47;71.33;98111.59;1708593;84;21085;-81
2022/02/03 21:28:33;;;;;;;25.60;12.45;;;;;;;-3.46;71.36;98117.63;1700278;83;21081;-82
2022/02/03 21:31:01;;;;;;;25.30;12.07;;;;;;;-3.45;71.29;98115.49;1705705;84;21056;-81
2022/02/03 21:33:34;;;;;;;23.25;11.70;;;;;;;-3.43;71.53;98124.61;1672120;84;21052;-79
2022/02/03 21:36:10;;;;;;;25.55;12.43;;;;;;;-3.40;71.72;98132.48;1707989;84;21021;-82